sensor_id;sensor_type;location;lat;lon;timestamp;pressure;altitude;pressure_sealevel;temperature;humidity
68986;BME280;56035;37.534;-122.308;2022-08-19T00:01:43;101045.72;;;23.98;44.22
68986;BME280;56035;37.534;-122.308;2022-08-19T00:04:12;101051.19;;;23.95;44.68
68986;BME280;56035;37.534;-122.308;2022-08-19T00:06:41;101054.28;;;23.85;44.86
68986;BME280;56035;37.534;-122.308;2022-08-19T00:09:10;101057.72;;;23.73;45.83
68986;BME280;56035;37.534;-122.308;2022-08-19T00:11:37;101066.06;;;23.64;45.62
68986;BME280;56035;37.534;-122.308;2022-08-19T00:14:05;101067.84;;;23.51;46.30
68986;BME280;56035;37.534;-122.308;2022-08-19T00:16:31;101061.00;;;23.44;46.60
68986;BME280;56035;37.534;-122.308;2022-08-19T00:18:58;101066.06;;;23.33;47.37
68986;BME280;56035;37.534;-122.308;2022-08-19T00:21:25;101063.63;;;23.18;47.66
68986;BME280;56035;37.534;-122.308;2022-08-19T00:23:55;101064.41;;;23.09;48.41
68986;BME280;56035;37.534;-122.308;2022-08-19T00:26:27;101074.75;;;23.00;48.24
68986;BME280;56035;37.534;-122.308;2022-08-19T00:28:54;101063.13;;;22.93;48.87
68986;BME280;56035;37.534;-122.308;2022-08-19T00:31:20;101069.25;;;22.95;48.92
68986;BME280;56035;37.534;-122.308;2022-08-19T00:33:46;101078.41;;;22.87;48.83
68986;BME280;56035;37.534;-122.308;2022-08-19T00:36:15;101069.72;;;22.75;48.97
68986;BME280;56035;37.534;-122.308;2022-08-19T00:38:41;101073.38;;;22.61;49.84
68986;BME280;56035;37.534;-122.308;2022-08-19T00:41:12;101074.78;;;22.50;49.63
68986;BME280;56035;37.534;-122.308;2022-08-19T00:43:38;101062.00;;;22.44;50.00
68986;BME280;56035;37.534;-122.308;2022-08-19T00:46:05;101080.72;;;22.35;50.70
68986;BME280;56035;37.534;-122.308;2022-08-19T00:48:33;101076.69;;;22.27;50.79
68986;BME280;56035;37.534;-122.308;2022-08-19T00:51:00;101083.22;;;22.23;51.16
68986;BME280;56035;37.534;-122.308;2022-08-19T00:53:29;101080.06;;;22.10;51.89
68986;BME280;56035;37.534;-122.308;2022-08-19T00:55:59;101087.53;;;21.87;52.45
68986;BME280;56035;37.534;-122.308;2022-08-19T00:58:29;101066.13;;;21.78;52.89
68986;BME280;56035;37.534;-122.308;2022-08-19T01:00:56;101073.63;;;21.68;53.44
68986;BME280;56035;37.534;-122.308;2022-08-19T01:03:22;101077.84;;;21.52;54.10
68986;BME280;56035;37.534;-122.308;2022-08-19T01:05:50;101065.69;;;21.43;54.83
68986;BME280;56035;37.534;-122.308;2022-08-19T01:08:18;101076.50;;;21.31;55.14
68986;BME280;56035;37.534;-122.308;2022-08-19T01:10:52;101071.84;;;21.26;55.24
68986;BME280;56035;37.534;-122.308;2022-08-19T01:13:22;101073.16;;;21.28;55.63
68986;BME280;56035;37.534;-122.308;2022-08-19T01:15:54;101074.56;;;21.12;55.89
68986;BME280;56035;37.534;-122.308;2022-08-19T01:18:21;101073.53;;;21.08;55.99
68986;BME280;56035;37.534;-122.308;2022-08-19T01:20:48;101074.63;;;20.93;56.56
68986;BME280;56035;37.534;-122.308;2022-08-19T01:23:14;101076.13;;;20.86;57.48
68986;BME280;56035;37.534;-122.308;2022-08-19T01:25:50;101080.00;;;20.71;57.83
68986;BME280;56035;37.534;-122.308;2022-08-19T01:28:22;101080.53;;;20.54;58.21
68986;BME280;56035;37.534;-122.308;2022-08-19T01:30:49;101077.22;;;20.47;58.61
68986;BME280;56035;37.534;-122.308;2022-08-19T01:33:15;101072.25;;;20.44;59.53
68986;BME280;56035;37.534;-122.308;2022-08-19T01:35:42;101075.69;;;20.35;59.51
68986;BME280;56035;37.534;-122.308;2022-08-19T01:38:19;101078.63;;;20.25;60.29
68986;BME280;56035;37.534;-122.308;2022-08-19T01:40:45;101078.22;;;20.13;60.57
68986;BME280;56035;37.534;-122.308;2022-08-19T01:43:11;101075.56;;;20.03;60.91
68986;BME280;56035;37.534;-122.308;2022-08-19T01:45:38;101073.44;;;19.95;61.37
68986;BME280;56035;37.534;-122.308;2022-08-19T01:48:08;101080.31;;;19.78;61.85
68986;BME280;56035;37.534;-122.308;2022-08-19T01:50:35;101074.84;;;19.63;62.60
68986;BME280;56035;37.534;-122.308;2022-08-19T01:53:03;101076.63;;;19.54;62.96
68986;BME280;56035;37.534;-122.308;2022-08-19T01:55:29;101076.16;;;19.41;63.52
68986;BME280;56035;37.534;-122.308;2022-08-19T01:57:58;101073.72;;;19.35;63.63
68986;BME280;56035;37.534;-122.308;2022-08-19T02:00:28;101072.44;;;19.22;64.13
68986;BME280;56035;37.534;-122.308;2022-08-19T02:02:55;101066.41;;;19.10;64.62
68986;BME280;56035;37.534;-122.308;2022-08-19T02:05:22;101070.13;;;19.00;64.92
68986;BME280;56035;37.534;-122.308;2022-08-19T02:07:49;101075.22;;;18.88;65.91
68986;BME280;56035;37.534;-122.308;2022-08-19T02:10:19;101079.75;;;18.79;66.16
68986;BME280;56035;37.534;-122.308;2022-08-19T02:12:46;101086.19;;;18.69;66.47
68986;BME280;56035;37.534;-122.308;2022-08-19T02:15:12;101082.41;;;18.55;67.37
68986;BME280;56035;37.534;-122.308;2022-08-19T02:17:39;101097.75;;;18.47;66.91
68986;BME280;56035;37.534;-122.308;2022-08-19T02:20:05;101096.41;;;18.39;67.82
68986;BME280;56035;37.534;-122.308;2022-08-19T02:22:32;101089.81;;;18.25;68.26
68986;BME280;56035;37.534;-122.308;2022-08-19T02:24:59;101090.69;;;18.10;69.02
68986;BME280;56035;37.534;-122.308;2022-08-19T02:27:25;101096.00;;;18.01;69.69
68986;BME280;56035;37.534;-122.308;2022-08-19T02:29:52;101095.75;;;17.88;70.03
68986;BME280;56035;37.534;-122.308;2022-08-19T02:32:19;101104.41;;;17.76;70.92
68986;BME280;56035;37.534;-122.308;2022-08-19T02:34:46;101102.50;;;17.66;71.47
68986;BME280;56035;37.534;-122.308;2022-08-19T02:37:13;101100.25;;;17.58;71.75
68986;BME280;56035;37.534;-122.308;2022-08-19T02:39:58;101111.97;;;17.45;72.32
68986;BME280;56035;37.534;-122.308;2022-08-19T02:42:25;101101.13;;;17.33;72.84
68986;BME280;56035;37.534;-122.308;2022-08-19T02:44:51;101101.66;;;17.20;74.19
68986;BME280;56035;37.534;-122.308;2022-08-19T02:47:21;101097.25;;;17.14;73.58
68986;BME280;56035;37.534;-122.308;2022-08-19T02:49:47;101100.28;;;17.02;74.37
68986;BME280;56035;37.534;-122.308;2022-08-19T02:52:16;101095.56;;;16.97;74.44
68986;BME280;56035;37.534;-122.308;2022-08-19T02:54:42;101112.22;;;16.87;74.77
68986;BME280;56035;37.534;-122.308;2022-08-19T02:57:08;101113.03;;;16.77;75.52
68986;BME280;56035;37.534;-122.308;2022-08-19T02:59:34;101107.69;;;16.71;75.02
68986;BME280;56035;37.534;-122.308;2022-08-19T03:02:00;101118.25;;;16.63;75.53
68986;BME280;56035;37.534;-122.308;2022-08-19T03:04:27;101117.97;;;16.55;76.27
68986;BME280;56035;37.534;-122.308;2022-08-19T03:06:53;101124.34;;;16.50;76.45
68986;BME280;56035;37.534;-122.308;2022-08-19T03:09:20;101119.88;;;16.39;76.83
68986;BME280;56035;37.534;-122.308;2022-08-19T03:11:46;101117.06;;;16.34;76.42
68986;BME280;56035;37.534;-122.308;2022-08-19T03:14:13;101119.25;;;16.27;77.31
68986;BME280;56035;37.534;-122.308;2022-08-19T03:16:44;101126.19;;;16.19;77.48
68986;BME280;56035;37.534;-122.308;2022-08-19T03:19:11;101119.75;;;16.13;77.51
68986;BME280;56035;37.534;-122.308;2022-08-19T03:21:38;101131.41;;;16.10;78.42
68986;BME280;56035;37.534;-122.308;2022-08-19T03:24:07;101126.91;;;16.04;77.97
68986;BME280;56035;37.534;-122.308;2022-08-19T03:26:37;101135.78;;;15.96;78.34
68986;BME280;56035;37.534;-122.308;2022-08-19T03:29:04;101135.47;;;15.93;78.38
68986;BME280;56035;37.534;-122.308;2022-08-19T03:31:31;101127.94;;;15.88;78.75
68986;BME280;56035;37.534;-122.308;2022-08-19T03:33:57;101135.72;;;15.86;79.25
68986;BME280;56035;37.534;-122.308;2022-08-19T03:36:27;101129.53;;;15.79;79.42
68986;BME280;56035;37.534;-122.308;2022-08-19T03:38:58;101139.28;;;15.76;80.63
68986;BME280;56035;37.534;-122.308;2022-08-19T03:41:29;101130.59;;;15.67;80.66
68986;BME280;56035;37.534;-122.308;2022-08-19T03:43:57;101141.38;;;15.64;80.61
68986;BME280;56035;37.534;-122.308;2022-08-19T03:46:24;101141.91;;;15.61;81.19
68986;BME280;56035;37.534;-122.308;2022-08-19T03:48:52;101140.19;;;15.55;81.56
68986;BME280;56035;37.534;-122.308;2022-08-19T03:51:31;101139.59;;;15.53;82.01
68986;BME280;56035;37.534;-122.308;2022-08-19T03:53:59;101136.53;;;15.49;82.52
68986;BME280;56035;37.534;-122.308;2022-08-19T03:56:27;101152.56;;;15.42;82.25
68986;BME280;56035;37.534;-122.308;2022-08-19T03:58:54;101161.44;;;15.39;82.87
68986;BME280;56035;37.534;-122.308;2022-08-19T04:01:24;101154.22;;;15.38;83.23
68986;BME280;56035;37.534;-122.308;2022-08-19T04:03:52;101161.66;;;15.32;83.92
68986;BME280;56035;37.534;-122.308;2022-08-19T04:06:22;101165.22;;;15.28;83.54
68986;BME280;56035;37.534;-122.308;2022-08-19T04:08:50;101160.75;;;15.27;82.95
68986;BME280;56035;37.534;-122.308;2022-08-19T04:11:20;101164.88;;;15.19;84.10
68986;BME280;56035;37.534;-122.308;2022-08-19T04:13:47;101166.75;;;15.13;84.14
68986;BME280;56035;37.534;-122.308;2022-08-19T04:16:13;101168.66;;;15.08;84.05
68986;BME280;56035;37.534;-122.308;2022-08-19T04:18:40;101168.91;;;15.06;84.51
68986;BME280;56035;37.534;-122.308;2022-08-19T04:21:07;101163.56;;;14.99;84.93
68986;BME280;56035;37.534;-122.308;2022-08-19T04:23:33;101177.72;;;14.98;85.32
68986;BME280;56035;37.534;-122.308;2022-08-19T04:26:01;101182.94;;;14.94;84.94
68986;BME280;56035;37.534;-122.308;2022-08-19T04:28:28;101183.72;;;14.90;85.70
68986;BME280;56035;37.534;-122.308;2022-08-19T04:30:55;101183.41;;;14.86;85.33
68986;BME280;56035;37.534;-122.308;2022-08-19T04:33:22;101192.00;;;14.85;85.92
68986;BME280;56035;37.534;-122.308;2022-08-19T04:35:50;101183.00;;;14.78;85.88
68986;BME280;56035;37.534;-122.308;2022-08-19T04:38:18;101184.06;;;14.71;85.74
68986;BME280;56035;37.534;-122.308;2022-08-19T04:40:48;101187.94;;;14.70;85.81
68986;BME280;56035;37.534;-122.308;2022-08-19T04:43:33;101192.31;;;14.66;85.68
68986;BME280;56035;37.534;-122.308;2022-08-19T04:46:11;101188.41;;;14.62;86.17
68986;BME280;56035;37.534;-122.308;2022-08-19T04:48:37;101190.34;;;14.62;86.85
68986;BME280;56035;37.534;-122.308;2022-08-19T04:51:10;101177.75;;;14.54;86.67
68986;BME280;56035;37.534;-122.308;2022-08-19T04:53:40;101173.78;;;14.50;86.21
68986;BME280;56035;37.534;-122.308;2022-08-19T04:56:12;101180.44;;;14.49;87.18
68986;BME280;56035;37.534;-122.308;2022-08-19T04:58:41;101178.84;;;14.53;87.79
68986;BME280;56035;37.534;-122.308;2022-08-19T05:01:20;101176.56;;;14.50;87.91
68986;BME280;56035;37.534;-122.308;2022-08-19T05:03:47;101176.56;;;14.50;88.03
68986;BME280;56035;37.534;-122.308;2022-08-19T05:06:14;101171.88;;;14.50;88.69
68986;BME280;56035;37.534;-122.308;2022-08-19T05:08:42;101165.72;;;14.48;88.14
68986;BME280;56035;37.534;-122.308;2022-08-19T05:11:13;101153.47;;;14.44;88.53
68986;BME280;56035;37.534;-122.308;2022-08-19T05:13:43;101160.13;;;14.43;88.94
68986;BME280;56035;37.534;-122.308;2022-08-19T05:16:12;101157.59;;;14.42;89.42
68986;BME280;56035;37.534;-122.308;2022-08-19T05:18:39;101155.63;;;14.37;89.06
68986;BME280;56035;37.534;-122.308;2022-08-19T05:21:25;101160.06;;;14.38;89.26
68986;BME280;56035;37.534;-122.308;2022-08-19T05:24:10;101158.31;;;14.32;89.09
68986;BME280;56035;37.534;-122.308;2022-08-19T05:26:37;101160.75;;;14.28;89.37
68986;BME280;56035;37.534;-122.308;2022-08-19T05:29:03;101155.69;;;14.20;89.16
68986;BME280;56035;37.534;-122.308;2022-08-19T05:31:31;101151.81;;;14.21;89.70
68986;BME280;56035;37.534;-122.308;2022-08-19T05:33:58;101148.97;;;14.16;90.56
68986;BME280;56035;37.534;-122.308;2022-08-19T05:36:28;101147.28;;;14.15;90.60
68986;BME280;56035;37.534;-122.308;2022-08-19T05:38:58;101143.94;;;14.13;89.75
68986;BME280;56035;37.534;-122.308;2022-08-19T05:41:24;101145.88;;;14.13;90.45
68986;BME280;56035;37.534;-122.308;2022-08-19T05:44:00;101136.38;;;14.09;90.75
68986;BME280;56035;37.534;-122.308;2022-08-19T05:46:27;101135.00;;;14.06;91.40
68986;BME280;56035;37.534;-122.308;2022-08-19T05:48:53;101133.38;;;14.10;91.26
68986;BME280;56035;37.534;-122.308;2022-08-19T05:51:22;101131.69;;;14.09;91.42
68986;BME280;56035;37.534;-122.308;2022-08-19T05:53:49;101122.81;;;14.07;91.69
68986;BME280;56035;37.534;-122.308;2022-08-19T05:56:16;101130.00;;;14.08;92.14
68986;BME280;56035;37.534;-122.308;2022-08-19T05:58:44;101133.56;;;14.03;92.03
68986;BME280;56035;37.534;-122.308;2022-08-19T06:01:13;101133.75;;;13.97;91.76
68986;BME280;56035;37.534;-122.308;2022-08-19T06:03:40;101136.25;;;13.98;91.90
68986;BME280;56035;37.534;-122.308;2022-08-19T06:06:08;101143.13;;;13.96;92.15
68986;BME280;56035;37.534;-122.308;2022-08-19T06:08:36;101143.66;;;13.93;92.83
68986;BME280;56035;37.534;-122.308;2022-08-19T06:11:25;101133.66;;;13.92;92.39
68986;BME280;56035;37.534;-122.308;2022-08-19T06:14:05;101148.63;;;13.91;93.19
68986;BME280;56035;37.534;-122.308;2022-08-19T06:16:35;101146.88;;;13.85;93.28
68986;BME280;56035;37.534;-122.308;2022-08-19T06:19:05;101142.44;;;13.84;93.29
68986;BME280;56035;37.534;-122.308;2022-08-19T06:21:32;101143.00;;;13.86;93.31
68986;BME280;56035;37.534;-122.308;2022-08-19T06:23:59;101136.88;;;13.84;93.64
68986;BME280;56035;37.534;-122.308;2022-08-19T06:26:25;101124.94;;;13.83;93.69
68986;BME280;56035;37.534;-122.308;2022-08-19T06:28:52;101125.81;;;13.84;94.08
68986;BME280;56035;37.534;-122.308;2022-08-19T06:31:21;101132.19;;;13.84;94.33
68986;BME280;56035;37.534;-122.308;2022-08-19T06:33:48;101117.56;;;13.89;95.09
68986;BME280;56035;37.534;-122.308;2022-08-19T06:36:22;101118.66;;;13.88;94.66
68986;BME280;56035;37.534;-122.308;2022-08-19T06:39:24;101116.63;;;13.83;94.40
68986;BME280;56035;37.534;-122.308;2022-08-19T06:41:53;101117.84;;;13.87;94.30
68986;BME280;56035;37.534;-122.308;2022-08-19T06:44:22;101113.34;;;13.86;94.86
68986;BME280;56035;37.534;-122.308;2022-08-19T06:46:49;101108.34;;;13.83;94.64
68986;BME280;56035;37.534;-122.308;2022-08-19T06:49:16;101116.63;;;13.83;94.85
68986;BME280;56035;37.534;-122.308;2022-08-19T06:51:45;101111.66;;;13.80;94.17
68986;BME280;56035;37.534;-122.308;2022-08-19T06:54:13;101121.03;;;13.79;94.83
68986;BME280;56035;37.534;-122.308;2022-08-19T06:56:40;101115.16;;;13.75;94.82
68986;BME280;56035;37.534;-122.308;2022-08-19T06:59:11;101120.69;;;13.75;94.22
68986;BME280;56035;37.534;-122.308;2022-08-19T07:01:41;101126.75;;;13.72;94.70
68986;BME280;56035;37.534;-122.308;2022-08-19T07:04:09;101113.16;;;13.71;94.95
68986;BME280;56035;37.534;-122.308;2022-08-19T07:06:36;101116.75;;;13.71;95.60
68986;BME280;56035;37.534;-122.308;2022-08-19T07:09:07;101124.47;;;13.69;95.97
68986;BME280;56035;37.534;-122.308;2022-08-19T07:11:33;101119.44;;;13.66;95.27
68986;BME280;56035;37.534;-122.308;2022-08-19T07:14:01;101115.00;;;13.65;95.62
68986;BME280;56035;37.534;-122.308;2022-08-19T07:16:27;101112.16;;;13.60;95.46
68986;BME280;56035;37.534;-122.308;2022-08-19T07:18:54;101106.06;;;13.58;96.09
68986;BME280;56035;37.534;-122.308;2022-08-19T07:21:27;101107.38;;;13.55;95.92
68986;BME280;56035;37.534;-122.308;2022-08-19T07:23:55;101102.94;;;13.54;95.90
68986;BME280;56035;37.534;-122.308;2022-08-19T07:26:27;101093.56;;;13.55;96.32
68986;BME280;56035;37.534;-122.308;2022-08-19T07:28:54;101097.97;;;13.56;96.20
68986;BME280;56035;37.534;-122.308;2022-08-19T07:31:22;101104.28;;;13.52;95.94
68986;BME280;56035;37.534;-122.308;2022-08-19T07:33:51;101109.81;;;13.52;96.53
68986;BME280;56035;37.534;-122.308;2022-08-19T07:36:21;101106.47;;;13.50;96.21
68986;BME280;56035;37.534;-122.308;2022-08-19T07:38:49;101109.16;;;13.45;96.08
68986;BME280;56035;37.534;-122.308;2022-08-19T07:41:21;101111.34;;;13.43;96.58
68986;BME280;56035;37.534;-122.308;2022-08-19T07:43:48;101103.53;;;13.40;95.74
68986;BME280;56035;37.534;-122.308;2022-08-19T07:46:15;101113.53;;;13.41;96.35
68986;BME280;56035;37.534;-122.308;2022-08-19T07:48:43;101106.81;;;13.37;96.36
68986;BME280;56035;37.534;-122.308;2022-08-19T07:51:15;101104.63;;;13.39;96.79
68986;BME280;56035;37.534;-122.308;2022-08-19T07:53:42;101114.28;;;13.36;96.47
68986;BME280;56035;37.534;-122.308;2022-08-19T07:56:10;101105.66;;;13.32;96.39
68986;BME280;56035;37.534;-122.308;2022-08-19T07:58:39;101093.41;;;13.28;96.45
68986;BME280;56035;37.534;-122.308;2022-08-19T08:01:07;101096.25;;;13.33;96.25
68986;BME280;56035;37.534;-122.308;2022-08-19T08:03:36;101095.19;;;13.34;96.97
68986;BME280;56035;37.534;-122.308;2022-08-19T08:06:21;101087.44;;;13.37;96.67
68986;BME280;56035;37.534;-122.308;2022-08-19T08:09:06;101092.06;;;13.31;97.22
68986;BME280;56035;37.534;-122.308;2022-08-19T08:11:45;101091.53;;;13.34;97.54
68986;BME280;56035;37.534;-122.308;2022-08-19T08:14:25;101090.72;;;13.33;97.12
68986;BME280;56035;37.534;-122.308;2022-08-19T08:16:52;101083.78;;;13.31;97.36
68986;BME280;56035;37.534;-122.308;2022-08-19T08:19:20;101088.44;;;13.30;97.61
68986;BME280;56035;37.534;-122.308;2022-08-19T08:21:48;101085.34;;;13.27;97.68
68986;BME280;56035;37.534;-122.308;2022-08-19T08:24:15;101072.25;;;13.22;97.33
68986;BME280;56035;37.534;-122.308;2022-08-19T08:26:41;101078.03;;;13.21;97.46
68986;BME280;56035;37.534;-122.308;2022-08-19T08:29:10;101072.75;;;13.19;98.28
68986;BME280;56035;37.534;-122.308;2022-08-19T08:31:40;101073.00;;;13.18;97.94
68986;BME280;56035;37.534;-122.308;2022-08-19T08:34:07;101069.06;;;13.13;98.20
68986;BME280;56035;37.534;-122.308;2022-08-19T08:36:37;101069.56;;;13.10;98.16
68986;BME280;56035;37.534;-122.308;2022-08-19T08:39:09;101067.06;;;13.09;97.82
68986;BME280;56035;37.534;-122.308;2022-08-19T08:44:20;101066.97;;;13.04;97.66
68986;BME280;56035;37.534;-122.308;2022-08-19T08:46:55;101062.53;;;13.03;98.02
68986;BME280;56035;37.534;-122.308;2022-08-19T08:52:06;101059.09;;;12.96;97.79
68986;BME280;56035;37.534;-122.308;2022-08-19T08:54:41;101061.03;;;12.95;97.34
68986;BME280;56035;37.534;-122.308;2022-08-19T08:57:14;101052.72;;;12.95;98.46
68986;BME280;56035;37.534;-122.308;2022-08-19T08:59:43;101055.16;;;12.92;98.14
68986;BME280;56035;37.534;-122.308;2022-08-19T09:02:31;101052.63;;;12.90;98.13
68986;BME280;56035;37.534;-122.308;2022-08-19T09:04:57;101053.47;;;12.91;98.69
68986;BME280;56035;37.534;-122.308;2022-08-19T09:07:46;101052.63;;;12.90;98.72
68986;BME280;56035;37.534;-122.308;2022-08-19T09:12:45;101046.78;;;12.86;98.44
68986;BME280;56035;37.534;-122.308;2022-08-19T09:15:17;101046.78;;;12.86;98.75
68986;BME280;56035;37.534;-122.308;2022-08-19T09:17:45;101049.75;;;12.85;99.00
68986;BME280;56035;37.534;-122.308;2022-08-19T09:20:20;101053.13;;;12.87;98.77
68986;BME280;56035;37.534;-122.308;2022-08-19T09:22:47;101049.19;;;12.83;99.23
68986;BME280;56035;37.534;-122.308;2022-08-19T09:25:20;101044.41;;;12.78;98.78
68986;BME280;56035;37.534;-122.308;2022-08-19T09:27:51;101047.75;;;12.80;98.65
68986;BME280;56035;37.534;-122.308;2022-08-19T09:30:32;101045.00;;;12.80;98.43
68986;BME280;56035;37.534;-122.308;2022-08-19T09:32:59;101038.53;;;12.75;98.54
68986;BME280;56035;37.534;-122.308;2022-08-19T09:35:27;101038.81;;;12.73;98.35
68986;BME280;56035;37.534;-122.308;2022-08-19T09:37:55;101035.19;;;12.73;98.50
68986;BME280;56035;37.534;-122.308;2022-08-19T09:40:23;101040.72;;;12.73;98.54
68986;BME280;56035;37.534;-122.308;2022-08-19T09:42:49;101048.44;;;12.71;98.20
68986;BME280;56035;37.534;-122.308;2022-08-19T09:45:17;101043.66;;;12.66;98.87
68986;BME280;56035;37.534;-122.308;2022-08-19T09:47:46;101040.06;;;12.65;98.33
68986;BME280;56035;37.534;-122.308;2022-08-19T09:50:12;101044.22;;;12.68;98.52
68986;BME280;56035;37.534;-122.308;2022-08-19T09:52:39;101040.06;;;12.65;98.08
68986;BME280;56035;37.534;-122.308;2022-08-19T09:55:06;101036.94;;;12.62;98.42
68986;BME280;56035;37.534;-122.308;2022-08-19T09:57:33;101043.22;;;12.57;98.65
68986;BME280;56035;37.534;-122.308;2022-08-19T10:00:00;101045.88;;;12.52;98.32
68986;BME280;56035;37.534;-122.308;2022-08-19T10:02:26;101038.09;;;12.49;98.42
68986;BME280;56035;37.534;-122.308;2022-08-19T10:04:52;101041.38;;;12.46;98.90
68986;BME280;56035;37.534;-122.308;2022-08-19T10:07:37;101048.78;;;12.46;98.97
68986;BME280;56035;37.534;-122.308;2022-08-19T10:10:05;101040.16;;;12.42;98.86
68986;BME280;56035;37.534;-122.308;2022-08-19T10:12:33;101040.91;;;12.37;99.08
68986;BME280;56035;37.534;-122.308;2022-08-19T10:15:00;101040.91;;;12.37;99.64
68986;BME280;56035;37.534;-122.308;2022-08-19T10:17:27;101041.50;;;12.39;99.83
68986;BME280;56035;37.534;-122.308;2022-08-19T10:19:53;101041.38;;;12.46;99.95
68986;BME280;56035;37.534;-122.308;2022-08-19T10:22:19;101029.44;;;12.46;99.90
68986;BME280;56035;37.534;-122.308;2022-08-19T10:24:46;101036.06;;;12.45;99.77
68986;BME280;56035;37.534;-122.308;2022-08-19T10:27:12;101029.09;;;12.42;99.73
68986;BME280;56035;37.534;-122.308;2022-08-19T10:29:40;101036.34;;;12.43;99.82
68986;BME280;56035;37.534;-122.308;2022-08-19T10:32:08;101030.47;;;12.39;99.79
68986;BME280;56035;37.534;-122.308;2022-08-19T10:34:36;101036.00;;;12.39;100.00
68986;BME280;56035;37.534;-122.308;2022-08-19T10:37:04;101036.00;;;12.39;100.00
68986;BME280;56035;37.534;-122.308;2022-08-19T10:39:35;101039.81;;;12.38;99.74
68986;BME280;56035;37.534;-122.308;2022-08-19T10:42:06;101035.50;;;12.43;100.00
68986;BME280;56035;37.534;-122.308;2022-08-19T10:44:33;101032.13;;;12.40;100.00
68986;BME280;56035;37.534;-122.308;2022-08-19T10:47:01;101036.34;;;12.43;100.00
68986;BME280;56035;37.534;-122.308;2022-08-19T10:49:27;101029.38;;;12.40;100.00
68986;BME280;56035;37.534;-122.308;2022-08-19T10:51:54;101030.97;;;12.36;99.99
68986;BME280;56035;37.534;-122.308;2022-08-19T10:54:38;101022.19;;;12.39;100.00
68986;BME280;56035;37.534;-122.308;2022-08-19T10:57:23;101023.84;;;12.40;100.00
68986;BME280;56035;37.534;-122.308;2022-08-19T10:59:55;101024.06;;;12.39;100.00
68986;BME280;56035;37.534;-122.308;2022-08-19T11:02:22;101017.72;;;12.38;100.00
68986;BME280;56035;37.534;-122.308;2022-08-19T11:04:48;101030.47;;;12.39;100.00
68986;BME280;56035;37.534;-122.308;2022-08-19T11:07:17;101014.38;;;12.36;100.00
68986;BME280;56035;37.534;-122.308;2022-08-19T11:09:43;101021.47;;;12.32;100.00
68986;BME280;56035;37.534;-122.308;2022-08-19T11:12:10;101004.53;;;12.29;100.00
68986;BME280;56035;37.534;-122.308;2022-08-19T11:14:38;101012.59;;;12.30;100.00
68986;BME280;56035;37.534;-122.308;2022-08-19T11:17:05;101011.50;;;12.31;100.00
68986;BME280;56035;37.534;-122.308;2022-08-19T11:19:32;101007.31;;;12.29;100.00
68986;BME280;56035;37.534;-122.308;2022-08-19T11:21:59;101015.84;;;12.27;100.00
68986;BME280;56035;37.534;-122.308;2022-08-19T11:24:26;101017.19;;;12.25;100.00
68986;BME280;56035;37.534;-122.308;2022-08-19T11:26:55;101012.50;;;12.25;100.00
68986;BME280;56035;37.534;-122.308;2022-08-19T11:29:27;101008.91;;;12.25;100.00
68986;BME280;56035;37.534;-122.308;2022-08-19T11:31:53;101007.47;;;12.22;100.00
68986;BME280;56035;37.534;-122.308;2022-08-19T11:34:25;101006.97;;;12.25;100.00
68986;BME280;56035;37.534;-122.308;2022-08-19T11:36:53;101010.00;;;12.24;100.00
68986;BME280;56035;37.534;-122.308;2022-08-19T11:39:22;101002.88;;;12.28;100.00
68986;BME280;56035;37.534;-122.308;2022-08-19T11:41:48;101008.13;;;12.29;100.00
68986;BME280;56035;37.534;-122.308;2022-08-19T11:44:15;101006.47;;;12.28;100.00
68986;BME280;56035;37.534;-122.308;2022-08-19T11:46:43;101001.44;;;12.25;100.00
68986;BME280;56035;37.534;-122.308;2022-08-19T11:49:14;101002.63;;;12.29;100.00
68986;BME280;56035;37.534;-122.308;2022-08-19T11:51:41;101003.47;;;12.30;100.00
68986;BME280;56035;37.534;-122.308;2022-08-19T11:54:13;101004.31;;;12.30;100.00
68986;BME280;56035;37.534;-122.308;2022-08-19T11:56:40;100999.50;;;12.26;100.00
68986;BME280;56035;37.534;-122.308;2022-08-19T11:59:06;100990.88;;;12.22;100.00
68986;BME280;56035;37.534;-122.308;2022-08-19T12:01:33;100990.31;;;12.20;100.00
68986;BME280;56035;37.534;-122.308;2022-08-19T12:04:00;100993.31;;;12.18;100.00
68986;BME280;56035;37.534;-122.308;2022-08-19T12:06:29;101000.28;;;12.21;100.00
68986;BME280;56035;37.534;-122.308;2022-08-19T12:09:03;100999.94;;;12.17;100.00
68986;BME280;56035;37.534;-122.308;2022-08-19T12:11:30;101006.88;;;12.20;100.00
68986;BME280;56035;37.534;-122.308;2022-08-19T12:13:56;101009.66;;;12.20;100.00
68986;BME280;56035;37.534;-122.308;2022-08-19T12:16:28;101002.44;;;12.19;100.00
68986;BME280;56035;37.534;-122.308;2022-08-19T12:18:56;101007.59;;;12.15;100.00
68986;BME280;56035;37.534;-122.308;2022-08-19T12:21:25;101009.31;;;12.16;100.00
68986;BME280;56035;37.534;-122.308;2022-08-19T12:23:55;101002.69;;;12.17;100.00
68986;BME280;56035;37.534;-122.308;2022-08-19T12:26:22;101007.13;;;12.18;100.00
68986;BME280;56035;37.534;-122.308;2022-08-19T12:28:48;101002.69;;;12.17;100.00
68986;BME280;56035;37.534;-122.308;2022-08-19T12:31:15;101004.84;;;12.15;100.00
68986;BME280;56035;37.534;-122.308;2022-08-19T12:33:42;100998.84;;;12.18;100.00
68986;BME280;56035;37.534;-122.308;2022-08-19T12:36:10;101005.19;;;12.19;100.00